Time;durP1;ratioP1;P1;durP2;ratioP2;P2;SDS_P1;SDS_P2;PMS_P1;PMS_P2;Temp;Humidity;BMP_temperature;BMP_pressure;BME280_temperature;BME280_humidity;BME280_pressure;Samples;Min_cycle;Max_cycle;Signal;HPM_P1;HPM_P2
2021/12/29 00:01:20;;;;;;;96.03;46.58;;;;;;;5.64;nan;94520.16;6103539;23;20071;-79
2021/12/29 00:03:46;;;;;;;97.05;45.33;;;;;;;5.79;nan;94541.25;6105178;23;20010;-80
2021/12/29 00:06:11;;;;;;;94.95;45.55;;;;;;;5.54;nan;94488.56;6130682;23;20021;-80
2021/12/29 00:08:37;;;;;;;102.50;46.47;;;;;;;5.24;nan;94492.66;6127359;23;20014;-80
2021/12/29 00:11:03;;;;;;;95.32;44.05;;;;;;;5.05;nan;94507.25;6102192;23;20005;-80
2021/12/29 00:13:30;;;;;;;101.95;49.65;;;;;;;4.70;nan;94533.31;6101919;23;20014;-80
2021/12/29 00:16:00;;;;;;;108.28;47.83;;;;;;;4.27;nan;94459.75;6126667;23;20013;-79
2021/12/29 00:18:27;;;;;;;104.22;48.20;;;;;;;5.10;nan;94552.00;6126739;23;20390;-79
2021/12/29 00:20:53;;;;;;;106.05;48.05;;;;;;;4.78;nan;94454.06;6127608;23;20005;-80
2021/12/29 00:23:19;;;;;;;136.80;63.63;;;;;;;5.28;nan;94517.38;6101907;23;20036;-79
2021/12/29 00:25:46;;;;;;;107.28;49.55;;;;;;;5.24;nan;94518.16;6128151;23;20036;-80
2021/12/29 00:28:11;;;;;;;127.93;55.80;;;;;;;4.35;nan;94389.47;6128147;23;20049;-79
2021/12/29 00:30:37;;;;;;;110.13;50.42;;;;;;;5.24;nan;94553.13;6101676;23;20037;-80
2021/12/29 00:33:02;;;;;;;99.28;46.08;;;;;;;5.01;nan;94499.13;6122938;23;20006;-79
2021/12/29 00:35:29;;;;;;;108.72;49.30;;;;;;;4.48;nan;94415.28;6102048;23;20028;-80
2021/12/29 00:37:55;;;;;;;102.20;48.83;;;;;;;5.18;nan;94522.59;6128288;23;20010;-80
2021/12/29 00:40:21;;;;;;;111.90;49.60;;;;;;;4.47;nan;94414.47;6128468;23;20018;-80
2021/12/29 00:42:46;;;;;;;100.00;50.20;;;;;;;5.10;nan;94520.44;6127843;23;20020;-80
2021/12/29 00:45:12;;;;;;;118.03;52.50;;;;;;;4.77;nan;94445.38;6128309;23;20361;-80
2021/12/29 00:47:38;;;;;;;106.82;48.65;;;;;;;5.47;nan;94545.84;6126139;23;20010;-80
2021/12/29 00:50:13;;;;;;;100.25;47.42;;;;;;;5.36;nan;94516.09;6125604;23;20010;-80
2021/12/29 00:52:38;;;;;;;110.28;47.05;;;;;;;5.65;nan;94551.44;6127300;23;20006;-80
2021/12/29 00:55:05;;;;;;;96.43;47.30;;;;;;;5.50;nan;94529.56;6127716;23;20017;-80
2021/12/29 00:57:30;;;;;;;98.35;44.78;;;;;;;5.10;nan;94478.41;6127913;23;20013;-79
2021/12/29 00:59:56;;;;;;;94.63;44.85;;;;;;;4.87;nan;94502.44;6128728;23;20386;-79
2021/12/29 01:02:23;;;;;;;127.53;51.17;;;;;;;5.43;nan;94550.81;6127005;23;20020;-82
2021/12/29 01:04:49;;;;;;;106.00;48.03;;;;;;;5.57;nan;94554.56;6130490;23;20005;-81
2021/12/29 01:07:15;;;;;;;102.13;46.22;;;;;;;5.56;nan;94526.72;6132673;23;20032;-81
2021/12/29 01:09:42;;;;;;;103.07;46.95;;;;;;;5.42;nan;94478.25;6105947;23;20092;-81
2021/12/29 01:12:08;;;;;;;99.70;45.78;;;;;;;5.41;nan;94474.06;6131892;23;20457;-82
2021/12/29 01:14:34;;;;;;;90.75;42.10;;;;;;;5.72;nan;94553.88;6105420;23;20006;-81
2021/12/29 01:17:00;;;;;;;96.20;44.63;;;;;;;5.41;nan;94479.31;6105301;23;20033;-81
2021/12/29 01:19:28;;;;;;;102.97;46.15;;;;;;;5.85;nan;94537.59;6105526;23;20418;-81
2021/12/29 01:21:57;;;;;;;98.82;44.13;;;;;;;5.18;nan;94416.66;6129761;23;20017;-81
2021/12/29 01:24:25;;;;;;;102.47;46.25;;;;;;;5.49;nan;94483.28;6131536;23;20064;-81
2021/12/29 01:26:50;;;;;;;94.88;45.78;;;;;;;5.78;nan;94534.41;6130760;23;20002;-81
2021/12/29 01:29:17;;;;;;;95.40;44.60;;;;;;;5.58;nan;94484.34;6129285;23;20028;-81
2021/12/29 01:31:43;;;;;;;95.32;43.40;;;;;;;5.63;nan;94473.84;6128837;23;20416;-81
2021/12/29 01:34:09;;;;;;;96.47;44.90;;;;;;;5.83;nan;94493.09;6130994;23;20032;-81
2021/12/29 01:36:37;;;;;;;90.03;42.38;;;;;;;5.38;nan;94414.88;6104504;23;20025;-81
2021/12/29 01:39:06;;;;;;;93.82;43.03;;;;;;;5.84;nan;94472.84;6105940;23;20060;-82
2021/12/29 01:41:31;;;;;;;99.45;48.53;;;;;;;5.84;nan;94464.94;6131301;23;20025;-81
2021/12/29 01:43:58;;;;;;;94.40;45.13;;;;;;;5.64;nan;94441.25;6129966;23;20021;-81
2021/12/29 01:46:23;;;;;;;96.75;43.25;;;;;;;5.90;nan;94474.47;6131390;23;20060;-81
2021/12/29 01:48:49;;;;;;;91.03;41.90;;;;;;;5.61;nan;94426.75;6131859;23;20311;-82
2021/12/29 01:51:17;;;;;;;94.93;45.25;;;;;;;6.23;nan;94527.69;6058270;23;21904;-81
2021/12/29 01:54:14;;;;;;;82.42;37.50;;;;;;;5.38;nan;94377.28;710420;23;10022078;-81
2021/12/29 01:56:43;;;;;;;96.72;43.95;;;;;;;5.65;nan;94400.72;6104903;23;20203;-80
2021/12/29 01:59:09;;;;;;;103.43;45.50;;;;;;;6.05;nan;94463.16;6131725;23;20497;-81
2021/12/29 02:01:35;;;;;;;88.50;43.33;;;;;;;5.88;nan;94426.53;6105139;23;20049;-81
2021/12/29 02:04:00;;;;;;;95.18;43.97;;;;;;;6.28;nan;94482.91;6130807;23;20072;-81
2021/12/29 02:06:26;;;;;;;91.68;43.28;;;;;;;6.31;nan;94477.13;6130334;23;20021;-81
2021/12/29 02:08:54;;;;;;;94.68;43.25;;;;;;;5.73;nan;94376.50;6105164;23;20338;-81
2021/12/29 02:11:28;;;;;;;89.15;42.70;;;;;;;6.25;nan;94472.94;6130329;23;20006;-81
2021/12/29 02:13:55;;;;;;;99.60;45.85;;;;;;;6.13;nan;94445.00;6130735;23;20058;-81
2021/12/29 02:16:20;;;;;;;94.40;45.50;;;;;;;5.37;nan;94337.03;6131162;23;20010;-81
2021/12/29 02:18:54;;;;;;;95.10;46.92;;;;;;;5.74;nan;94412.31;6104442;23;20343;-81
2021/12/29 02:21:26;;;;;;;100.97;48.00;;;;;;;6.15;nan;94445.53;6129039;23;20010;-81
2021/12/29 02:24:39;;;;;;;106.90;51.85;;;;;;;6.24;nan;94445.00;6126392;23;20484;-81
2021/12/29 02:26:43;;;;;;;106.38;50.20;;;;;;;6.19;nan;94428.13;6108015;23;20010;-81
2021/12/29 02:29:11;;;;;;;105.28;49.88;;;;;;;6.11;nan;94412.09;6123293;23;20358;-81
2021/12/29 02:31:37;;;;;;;101.63;49.60;;;;;;;5.67;nan;94356.53;6121830;23;20051;-81
2021/12/29 02:34:04;;;;;;;94.47;45.60;;;;;;;6.16;nan;94428.69;6096552;23;20017;-82
2021/12/29 02:36:30;;;;;;;105.30;50.45;;;;;;;5.41;nan;94324.16;6123235;23;20113;-80
2021/12/29 02:38:57;;;;;;;110.90;55.00;;;;;;;6.26;nan;94434.97;6124985;23;20010;-80
2021/12/29 02:41:25;;;;;;;106.65;57.05;;;;;;;6.25;nan;94430.78;6126732;23;20013;-80
2021/12/29 02:43:58;;;;;;;106.93;58.08;;;;;;;6.28;nan;94430.25;6125042;23;20044;-80
2021/12/29 02:46:26;;;;;;;103.88;55.55;;;;;;;5.60;nan;94327.06;6124469;23;20048;-80
2021/12/29 02:48:59;;;;;;;111.05;57.10;;;;;;;5.85;nan;94366.53;6100212;23;20006;-80
2021/12/29 02:51:32;;;;;;;99.95;50.97;;;;;;;5.52;nan;94322.31;6125544;23;20010;-81
2021/12/29 02:53:58;;;;;;;108.75;53.35;;;;;;;6.26;nan;94435.78;6126697;23;20032;-80
2021/12/29 02:56:26;;;;;;;96.68;48.53;;;;;;;5.54;nan;94341.28;6126890;23;20454;-80
2021/12/29 02:58:52;;;;;;;96.40;48.78;;;;;;;5.74;nan;94401.78;6076874;23;20530;-80
2021/12/29 03:01:19;;;;;;;94.82;48.38;;;;;;;5.85;nan;94395.47;6126808;23;20010;-80
2021/12/29 03:03:45;;;;;;;95.22;48.75;;;;;;;5.63;nan;94352.84;6101246;23;20026;-80
2021/12/29 03:06:10;;;;;;;97.13;47.38;;;;;;;6.23;nan;94420.53;6127499;23;20077;-80
2021/12/29 03:08:37;;;;;;;93.60;45.53;;;;;;;5.99;nan;94372.88;6127624;23;20006;-80
2021/12/29 03:11:04;;;;;;;93.72;45.20;;;;;;;5.78;nan;94344.97;6101544;23;20006;-80
2021/12/29 03:13:36;;;;;;;93.85;46.97;;;;;;;6.33;nan;94438.94;6127133;23;20461;-80
2021/12/29 03:16:02;;;;;;;95.45;47.78;;;;;;;6.16;nan;94401.56;6126818;23;20005;-80
2021/12/29 03:18:28;;;;;;;95.10;46.22;;;;;;;5.65;nan;94356.00;6125841;23;19998;-80
2021/12/29 03:20:54;;;;;;;94.45;47.17;;;;;;;5.92;nan;94380.25;6125127;23;20010;-80
2021/12/29 03:23:20;;;;;;;90.88;45.45;;;;;;;6.19;nan;94417.59;6095801;23;20030;-80
2021/12/29 03:25:49;;;;;;;87.90;43.25;;;;;;;5.84;nan;94346.53;6072470;23;20007;-80
2021/12/29 03:28:20;;;;;;;90.13;46.70;;;;;;;5.76;nan;94339.97;6072212;23;20015;-80
2021/12/29 03:30:50;;;;;;;104.30;46.70;;;;;;;4.53;nan;94265.63;6096165;23;20038;-81
2021/12/29 03:33:16;;;;;;;105.10;50.80;;;;;;;5.28;nan;94343.06;6071465;23;20007;-80
2021/12/29 03:35:46;;;;;;;90.53;46.58;;;;;;;5.90;nan;94399.97;6097681;23;20015;-80
2021/12/29 03:38:17;;;;;;;98.50;47.40;;;;;;;5.77;nan;94365.22;6071129;23;20015;-80
2021/12/29 03:40:43;;;;;;;99.72;47.35;;;;;;;5.80;nan;94356.78;6096557;23;20014;-80
2021/12/29 03:43:10;;;;;;;94.75;44.75;;;;;;;6.13;nan;94404.72;6099174;23;20018;-80
2021/12/29 03:45:37;;;;;;;99.07;48.42;;;;;;;5.12;nan;94281.78;6050644;23;20034;-80
2021/12/29 03:48:04;;;;;;;101.07;49.92;;;;;;;5.53;nan;94303.66;6100680;23;20017;-80
2021/12/29 03:50:30;;;;;;;101.03;47.53;;;;;;;6.07;nan;94385.50;6074525;23;20318;-80
2021/12/29 03:52:56;;;;;;;104.93;50.90;;;;;;;6.05;nan;94373.66;6075361;23;20020;-79
2021/12/29 03:55:21;;;;;;;94.82;47.50;;;;;;;5.14;nan;94305.19;6074863;23;20010;-80
2021/12/29 03:57:47;;;;;;;100.35;47.90;;;;;;;5.68;nan;94376.53;6075447;23;20029;-81
2021/12/29 04:00:16;;;;;;;96.43;46.35;;;;;;;4.71;nan;94264.38;6075571;23;20018;-80
2021/12/29 04:02:42;;;;;;;92.07;47.17;;;;;;;5.29;nan;94299.94;6100777;23;20371;-81
2021/12/29 04:05:11;;;;;;;101.88;46.97;;;;;;;5.83;nan;94358.09;6100414;23;20089;-80
2021/12/29 04:07:36;;;;;;;100.90;47.00;;;;;;;5.69;nan;94349.97;6101639;23;20010;-79
2021/12/29 04:10:04;;;;;;;98.88;47.00;;;;;;;5.42;nan;94294.97;6099400;23;20033;-80
2021/12/29 04:12:29;;;;;;;105.88;48.38;;;;;;;5.59;nan;94305.22;6100692;23;20003;-80
2021/12/29 04:14:55;;;;;;;112.32;48.88;;;;;;;5.57;nan;94346.00;6101283;23;20017;-80
2021/12/29 04:17:26;;;;;;;98.47;47.45;;;;;;;5.61;nan;94326.00;6101038;23;20419;-79
2021/12/29 04:22:35;;;;;;;109.20;49.35;;;;;;;6.20;nan;94389.44;6114580;23;20049;-80
2021/12/29 04:25:01;;;;;;;94.80;44.95;;;;;;;5.69;nan;94320.22;6128936;23;20009;-79
2021/12/29 04:27:26;;;;;;;102.18;47.85;;;;;;;5.71;nan;94307.63;6128189;23;20029;-80
2021/12/29 04:29:52;;;;;;;96.32;44.85;;;;;;;5.85;nan;94337.59;6128658;23;20433;-80
2021/12/29 04:32:18;;;;;;;97.40;48.05;;;;;;;5.38;nan;94258.94;6103387;23;20010;-80
2021/12/29 04:34:44;;;;;;;93.22;44.35;;;;;;;6.24;nan;94384.44;6128721;23;20025;-80
2021/12/29 04:37:10;;;;;;;102.32;49.15;;;;;;;6.31;nan;94390.22;6126428;23;20006;-79
2021/12/29 04:39:36;;;;;;;101.35;46.65;;;;;;;5.76;nan;94303.13;6126043;23;20014;-79
2021/12/29 04:42:01;;;;;;;94.38;45.92;;;;;;;5.41;nan;94282.91;6124825;23;20104;-79
2021/12/29 04:44:27;;;;;;;98.97;46.20;;;;;;;6.08;nan;94376.56;6101163;23;20442;-79
2021/12/29 04:46:54;;;;;;;98.78;47.17;;;;;;;5.54;nan;94304.44;6103073;23;20037;-80
2021/12/29 04:49:27;;;;;;;92.50;45.70;;;;;;;6.12;nan;94400.50;6102563;23;20072;-80
2021/12/29 04:52:02;;;;;;;96.72;44.90;;;;;;;4.85;nan;94208.47;6126708;23;20006;-79
2021/12/29 04:54:29;;;;;;;95.93;46.00;;;;;;;5.19;nan;94303.34;6101698;23;20450;-79
2021/12/29 04:56:55;;;;;;;92.13;45.20;;;;;;;5.79;nan;94373.66;6126145;23;20097;-81
2021/12/29 04:59:22;;;;;;;85.80;43.65;;;;;;;5.27;nan;94270.50;6126876;23;20029;-79
2021/12/29 05:01:47;;;;;;;91.70;44.72;;;;;;;5.29;nan;94271.81;6128493;23;20085;-79
2021/12/29 05:04:20;;;;;;;90.68;44.28;;;;;;;6.12;nan;94392.59;6102437;23;20034;-79
2021/12/29 05:09:30;;;;;;;91.80;46.25;;;;;;;5.67;nan;94320.50;6128586;23;20025;-80
2021/12/29 05:11:58;;;;;;;89.80;44.00;;;;;;;5.24;nan;94244.75;6126887;23;20065;-80
2021/12/29 05:14:24;;;;;;;89.50;44.53;;;;;;;5.56;nan;94284.72;6128469;23;20025;-80
2021/12/29 05:16:50;;;;;;;85.97;42.45;;;;;;;5.59;nan;94315.75;6128445;23;20125;-80
2021/12/29 05:19:16;;;;;;;87.53;42.15;;;;;;;5.84;nan;94357.06;6128081;23;20010;-81
2021/12/29 05:21:41;;;;;;;81.18;42.75;;;;;;;5.98;nan;94379.19;6127575;23;20358;-80
2021/12/29 05:24:07;;;;;;;93.70;45.85;;;;;;;5.90;nan;94358.66;6127812;23;20006;-79
2021/12/29 05:26:33;;;;;;;97.25;46.72;;;;;;;5.85;nan;94376.28;6126825;23;20010;-80
2021/12/29 05:28:58;;;;;;;91.80;43.95;;;;;;;6.05;nan;94405.25;6101102;23;20001;-80
2021/12/29 05:31:25;;;;;;;86.15;43.22;;;;;;;4.50;nan;94169.00;6126608;23;20021;-79
2021/12/29 05:33:50;;;;;;;90.78;45.10;;;;;;;5.81;nan;94389.16;6102554;23;20351;-79
2021/12/29 05:36:16;;;;;;;84.03;42.70;;;;;;;4.95;nan;94250.50;6101383;23;20021;-80
2021/12/29 05:38:42;;;;;;;91.03;43.85;;;;;;;5.55;nan;94364.69;6127294;23;20010;-80
2021/12/29 05:41:07;;;;;;;89.80;42.58;;;;;;;5.92;nan;94400.50;6126911;23;20010;-80
2021/12/29 05:43:33;;;;;;;84.53;42.05;;;;;;;5.52;nan;94344.16;6129033;23;20023;-80
2021/12/29 05:45:59;;;;;;;84.57;41.22;;;;;;;5.88;nan;94394.19;6099748;23;20005;-79
2021/12/29 05:48:24;;;;;;;86.80;43.08;;;;;;;5.64;nan;94381.53;6131300;23;20016;-80
2021/12/29 05:50:50;;;;;;;83.75;41.58;;;;;;;5.69;nan;94349.97;6126019;23;20074;-79
2021/12/29 05:53:15;;;;;;;84.65;40.45;;;;;;;5.65;nan;94333.09;6102843;23;20025;-80
2021/12/29 05:55:44;;;;;;;89.97;43.25;;;;;;;5.46;nan;94282.09;6126788;23;20122;-79
2021/12/29 05:58:10;;;;;;;79.00;41.08;;;;;;;6.40;nan;94425.50;6124772;23;20081;-80
2021/12/29 06:00:37;;;;;;;87.60;43.95;;;;;;;6.43;nan;94422.34;6094645;23;20136;-80
2021/12/29 06:03:03;;;;;;;80.53;41.42;;;;;;;6.27;nan;94411.03;6098001;23;20312;-79
2021/12/29 06:05:29;;;;;;;79.75;41.03;;;;;;;6.28;nan;94403.91;6126220;23;20002;-79
2021/12/29 06:07:54;;;;;;;85.35;42.10;;;;;;;6.56;nan;94422.56;6124089;23;20030;-79
2021/12/29 06:10:20;;;;;;;82.22;39.90;;;;;;;6.58;nan;94427.59;6094399;23;20002;-79
2021/12/29 06:12:47;;;;;;;80.72;41.08;;;;;;;6.63;nan;94417.06;6113242;23;20009;-80
2021/12/29 06:15:13;;;;;;;78.28;41.00;;;;;;;5.90;nan;94313.13;6124429;23;20079;-80
2021/12/29 06:17:39;;;;;;;84.55;41.13;;;;;;;6.41;nan;94388.34;6099887;23;20010;-80
2021/12/29 06:20:07;;;;;;;83.18;40.70;;;;;;;6.47;nan;94402.31;6122650;23;20347;-79
2021/12/29 06:22:33;;;;;;;80.38;41.88;;;;;;;6.30;nan;94370.22;6098935;23;20053;-80
2021/12/29 06:24:59;;;;;;;83.55;43.03;;;;;;;6.26;nan;94359.41;6123268;23;20010;-80
2021/12/29 06:27:24;;;;;;;83.22;41.53;;;;;;;6.36;nan;94395.47;6099922;23;20146;-80
2021/12/29 06:29:51;;;;;;;90.57;39.78;;;;;;;6.26;nan;94379.69;6098120;23;20036;-80
2021/12/29 06:32:18;;;;;;;91.35;41.88;;;;;;;6.61;nan;94437.59;6125013;23;20069;-79
2021/12/29 06:34:43;;;;;;;80.07;40.72;;;;;;;6.13;nan;94368.66;6124235;23;20084;-80
2021/12/29 06:37:09;;;;;;;78.45;41.35;;;;;;;6.17;nan;94353.13;6124172;23;20518;-80
2021/12/29 06:39:36;;;;;;;83.13;43.22;;;;;;;6.34;nan;94371.25;6098950;23;20021;-80
2021/12/29 06:42:03;;;;;;;72.60;39.00;;;;;;;6.56;nan;94392.84;6126096;23;20024;-80
2021/12/29 06:44:28;;;;;;;82.38;41.15;;;;;;;6.36;nan;94387.59;6124689;23;20057;-80
2021/12/29 06:46:54;;;;;;;83.50;42.90;;;;;;;6.77;nan;94423.34;6124906;23;20010;-81
2021/12/29 06:49:20;;;;;;;88.97;42.55;;;;;;;6.91;nan;94448.06;6125677;23;20006;-81
2021/12/29 06:51:46;;;;;;;83.85;41.83;;;;;;;6.12;nan;94313.63;6122139;23;20005;-79
2021/12/29 06:54:11;;;;;;;84.88;42.40;;;;;;;6.90;nan;94424.59;6125057;23;20010;-80
2021/12/29 06:56:55;;;;;;;89.60;41.83;;;;;;;6.86;nan;94427.00;6096090;23;20060;-87
2021/12/29 06:59:21;;;;;;;84.93;42.20;;;;;;;4.35;nan;94020.13;6120608;23;20026;-87
2021/12/29 07:01:47;;;;;;;85.78;42.67;;;;;;;4.58;nan;94071.31;6096643;23;20068;-87
2021/12/29 07:04:13;;;;;;;84.43;41.40;;;;;;;5.48;nan;94234.50;6098115;23;20168;-87
2021/12/29 07:06:39;;;;;;;87.55;43.17;;;;;;;6.08;nan;94366.03;6100124;23;20017;-87
2021/12/29 07:09:05;;;;;;;89.90;43.35;;;;;;;5.15;nan;94194.53;6124233;23;20006;-87
2021/12/29 07:11:30;;;;;;;84.25;42.97;;;;;;;6.75;nan;94448.38;6117317;23;20017;-86
2021/12/29 07:13:59;;;;;;;81.72;41.92;;;;;;;4.54;nan;94086.81;6119048;23;20127;-88
2021/12/29 07:16:25;;;;;;;88.70;45.03;;;;;;;6.66;nan;94421.78;6099073;23;20038;-87
2021/12/29 07:18:51;;;;;;;93.90;47.92;;;;;;;6.75;nan;94456.28;6098435;23;20024;-87
2021/12/29 07:21:17;;;;;;;79.65;44.28;;;;;;;6.72;nan;94451.53;6111253;23;20010;-87
2021/12/29 07:23:42;;;;;;;86.70;45.67;;;;;;;6.87;nan;94460.19;6102356;23;20067;-88
2021/12/29 07:26:08;;;;;;;94.85;49.08;;;;;;;6.12;nan;94361.81;6099890;23;20006;-87
2021/12/29 07:28:37;;;;;;;96.75;51.90;;;;;;;6.27;nan;94429.47;6098893;23;20006;-87
2021/12/29 07:31:02;;;;;;;98.68;51.88;;;;;;;5.74;nan;94378.09;6098567;23;20009;-87
2021/12/29 07:33:28;;;;;;;95.45;50.78;;;;;;;5.59;nan;94365.72;6098927;23;20024;-87
2021/12/29 07:35:53;;;;;;;99.03;53.20;;;;;;;5.38;nan;94314.16;6099060;23;20017;-87
2021/12/29 07:38:19;;;;;;;99.95;53.05;;;;;;;5.73;nan;94379.94;6099607;23;20152;-87
2021/12/29 07:40:44;;;;;;;112.93;54.22;;;;;;;5.57;nan;94338.88;6098231;23;20172;-87
2021/12/29 07:43:10;;;;;;;99.28;53.03;;;;;;;5.56;nan;94311.03;6098601;23;20014;-87
2021/12/29 07:45:36;;;;;;;112.53;56.17;;;;;;;6.55;nan;94471.06;6099788;23;20010;-87
2021/12/29 07:48:04;;;;;;;118.15;56.83;;;;;;;6.71;nan;94458.66;6100876;23;20010;-87
2021/12/29 07:50:30;;;;;;;124.82;56.33;;;;;;;6.52;nan;94439.97;6101373;23;20039;-87
2021/12/29 07:52:55;;;;;;;116.32;56.95;;;;;;;6.25;nan;94415.78;6098145;23;20022;-88
2021/12/29 07:55:21;;;;;;;112.72;56.50;;;;;;;5.85;nan;94342.06;6097693;23;20647;-87
2021/12/29 07:57:48;;;;;;;118.03;58.45;;;;;;;3.88;nan;94036.88;6122850;23;20093;-87
2021/12/29 08:00:16;;;;;;;122.65;57.33;;;;;;;6.44;nan;94434.44;6121345;23;20021;-87
2021/12/29 08:02:44;;;;;;;121.45;58.30;;;;;;;6.17;nan;94377.63;6121344;23;20009;-87
2021/12/29 08:05:11;;;;;;;121.07;58.03;;;;;;;5.71;nan;94299.72;6097019;23;20006;-86
2021/12/29 08:07:36;;;;;;;120.97;58.05;;;;;;;6.51;nan;94417.31;6097747;23;20010;-87
2021/12/29 08:10:03;;;;;;;112.10;55.38;;;;;;;6.94;nan;94478.38;6096310;23;20127;-87
2021/12/29 08:12:29;;;;;;;111.10;56.83;;;;;;;6.83;nan;94447.81;6121228;23;20006;-87
2021/12/29 08:14:54;;;;;;;113.07;55.88;;;;;;;6.56;nan;94429.72;6096912;23;20009;-87
2021/12/29 08:17:23;;;;;;;112.13;55.85;;;;;;;6.82;nan;94438.34;6115096;23;20047;-87
2021/12/29 08:19:50;;;;;;;124.45;58.50;;;;;;;6.00;nan;94340.25;6124717;23;20443;-87
2021/12/29 08:22:16;;;;;;;115.47;57.53;;;;;;;6.45;nan;94392.06;6123356;23;20029;-87
2021/12/29 08:24:41;;;;;;;120.57;58.22;;;;;;;5.94;nan;94308.94;6097342;23;20009;-87
2021/12/29 08:27:07;;;;;;;117.65;56.53;;;;;;;6.92;nan;94448.88;6123050;23;20093;-87
2021/12/29 08:29:32;;;;;;;110.63;55.55;;;;;;;5.50;nan;94246.31;6096298;23;20006;-87
2021/12/29 08:31:58;;;;;;;121.00;60.35;;;;;;;7.05;nan;94472.03;6095859;23;20014;-87
2021/12/29 08:34:26;;;;;;;122.72;60.95;;;;;;;6.90;nan;94437.78;6097367;23;20014;-87
2021/12/29 08:36:52;;;;;;;124.70;60.58;;;;;;;6.57;nan;94397.81;6097612;23;20092;-87
2021/12/29 08:39:18;;;;;;;132.40;57.53;;;;;;;4.90;nan;94145.41;6096475;23;20061;-87
2021/12/29 08:41:45;;;;;;;115.53;54.35;;;;;;;6.06;nan;94301.53;6096398;23;20018;-87
2021/12/29 08:44:11;;;;;;;114.85;54.20;;;;;;;6.37;nan;94344.41;6097199;23;20010;-87
2021/12/29 08:46:37;;;;;;;103.93;47.80;;;;;;;5.83;nan;94266.81;6097199;23;20010;-87
2021/12/29 08:49:03;;;;;;;109.88;48.75;;;;;;;6.32;nan;94325.97;6095704;23;20435;-87
2021/12/29 08:51:29;;;;;;;96.82;46.80;;;;;;;6.51;nan;94390.19;6127056;23;20032;-87
2021/12/29 08:53:56;;;;;;;102.88;48.75;;;;;;;7.03;nan;94468.84;6100169;23;20002;-87
2021/12/29 08:56:22;;;;;;;116.70;51.00;;;;;;;6.43;nan;94344.13;6096772;23;20078;-87
2021/12/29 08:58:48;;;;;;;110.00;53.25;;;;;;;7.06;nan;94444.59;6126939;23;20049;-87
2021/12/29 09:01:14;;;;;;;112.90;51.45;;;;;;;6.90;nan;94421.97;6093776;23;20460;-87
2021/12/29 09:03:41;;;;;;;108.20;49.33;;;;;;;6.14;nan;94288.63;6118977;23;20045;-87
2021/12/29 09:06:07;;;;;;;99.97;50.53;;;;;;;6.98;nan;94409.03;6095152;23;20006;-86
2021/12/29 09:08:32;;;;;;;121.22;55.88;;;;;;;7.06;nan;94409.53;6095482;23;20017;-86
2021/12/29 09:10:58;;;;;;;118.63;56.50;;;;;;;6.61;nan;94342.75;6096470;23;20227;-86
2021/12/29 09:13:23;;;;;;;120.60;57.13;;;;;;;7.17;nan;94432.94;6122294;23;20017;-86
2021/12/29 09:15:49;;;;;;;124.05;55.28;;;;;;;6.04;nan;94253.63;6095646;23;20084;-86
2021/12/29 09:18:17;;;;;;;121.22;54.67;;;;;;;7.11;nan;94412.94;6095242;23;20009;-86
2021/12/29 09:20:47;;;;;;;124.95;57.42;;;;;;;6.42;nan;94299.59;6121120;23;20034;-86
2021/12/29 09:23:14;;;;;;;112.72;52.83;;;;;;;7.50;nan;94428.06;6096429;23;20014;-86
2021/12/29 09:25:43;;;;;;;109.03;51.70;;;;;;;6.87;nan;94330.25;6095645;23;20006;-86
2021/12/29 09:28:11;;;;;;;107.28;52.88;;;;;;;7.53;nan;94420.41;6095387;23;20049;-86
2021/12/29 09:30:39;;;;;;;105.20;51.97;;;;;;;6.98;nan;94335.22;6095949;23;20113;-86
2021/12/29 09:33:07;;;;;;;92.20;45.92;;;;;;;7.20;nan;94342.75;6096693;23;20093;-86
2021/12/29 09:35:32;;;;;;;84.18;41.47;;;;;;;7.38;nan;94367.72;6096269;23;20200;-86
2021/12/29 09:37:58;;;;;;;74.88;37.47;;;;;;;7.56;nan;94427.75;6095728;23;20310;-86
2021/12/29 09:40:25;;;;;;;71.90;36.65;;;;;;;5.42;nan;94062.78;6097018;23;20109;-86
2021/12/29 09:42:53;;;;;;;69.80;37.92;;;;;;;6.95;nan;94330.47;6096183;23;20013;-86
2021/12/29 09:45:19;;;;;;;73.30;37.20;;;;;;;2.72;nan;93709.16;6096559;23;20354;-86
2021/12/29 09:47:45;;;;;;;78.28;38.08;;;;;;;5.85;nan;94140.25;6096914;23;20048;-86
2021/12/29 09:50:13;;;;;;;75.10;38.65;;;;;;;7.46;nan;94382.97;6096787;23;20014;-86
2021/12/29 09:52:39;;;;;;;70.40;37.95;;;;;;;7.70;nan;94402.31;6097017;23;20089;-86
2021/12/29 09:55:09;;;;;;;74.32;38.75;;;;;;;7.13;nan;94347.53;6096567;23;20064;-86
2021/12/29 09:57:38;;;;;;;87.43;42.80;;;;;;;7.29;nan;94359.59;6096676;23;20386;-87
2021/12/29 10:00:09;;;;;;;78.97;40.80;;;;;;;7.46;nan;94353.97;6097463;23;20125;-87
2021/12/29 10:02:35;;;;;;;;;;;;;;;7.85;nan;94392.75;6097238;23;20434;-86
2021/12/29 10:05:02;;;;;;;79.07;40.92;;;;;;;7.38;nan;94293.06;6123179;23;20004;-86
2021/12/29 10:07:27;;;;;;;75.90;39.10;;;;;;;7.85;nan;94353.94;6124273;23;20014;-87
2021/12/29 10:09:53;;;;;;;73.68;39.72;;;;;;;7.28;nan;94273.59;6122610;23;20009;-87
2021/12/29 10:12:21;;;;;;;84.22;41.10;;;;;;;5.63;nan;94016.19;6122507;23;20073;-87
2021/12/29 10:14:59;;;;;;;73.45;38.97;;;;;;;7.51;nan;94316.19;6097609;23;20006;-87
2021/12/29 10:17:27;;;;;;;71.75;38.17;;;;;;;7.92;nan;94364.19;6095447;23;20497;-87
2021/12/29 10:20:09;;;;;;;71.05;35.83;;;;;;;7.68;nan;94343.00;6096682;23;20014;-87
2021/12/29 10:22:35;;;;;;;65.97;36.15;;;;;;;7.93;nan;94358.63;6096282;23;20006;-87
2021/12/29 10:25:13;;;;;;;71.05;38.72;;;;;;;8.10;nan;94366.13;6097069;23;20018;-87
2021/12/29 10:27:40;;;;;;;67.53;36.33;;;;;;;7.77;nan;94340.56;6096455;23;20069;-86
2021/12/29 10:30:30;;;;;;;65.00;36.78;;;;;;;7.70;nan;94293.38;6121505;23;20129;-86
2021/12/29 10:32:59;;;;;;;72.28;39.40;;;;;;;8.17;nan;94365.81;6097832;23;20442;-86
2021/12/29 10:35:29;;;;;;;73.32;37.85;;;;;;;8.27;nan;94355.16;6123278;23;20029;-87
2021/12/29 10:38:19;;;;;;;75.47;39.33;;;;;;;7.65;nan;94267.78;6097448;23;20069;-86
2021/12/29 10:40:48;;;;;;;72.80;38.30;;;;;;;7.53;nan;94234.91;6096979;23;20403;-86
2021/12/29 10:43:15;;;;;;;66.53;35.97;;;;;;;7.73;nan;94255.84;6097820;23;20006;-87
2021/12/29 10:45:44;;;;;;;68.15;36.97;;;;;;;8.29;nan;94348.53;6097345;23;20010;-87
2021/12/29 10:48:45;;;;;;;67.28;36.95;;;;;;;8.37;nan;94347.19;6098655;23;20006;-86
2021/12/29 10:51:10;;;;;;;65.45;35.60;;;;;;;7.72;nan;94239.22;6101227;23;20472;-86
2021/12/29 10:53:39;;;;;;;64.07;35.63;;;;;;;8.35;nan;94321.03;6099355;23;20014;-86
2021/12/29 10:56:06;;;;;;;70.13;37.03;;;;;;;8.53;nan;94343.31;6099740;23;20460;-86
2021/12/29 10:58:34;;;;;;;77.15;42.92;;;;;;;7.66;nan;94202.59;6099156;23;20021;-86
2021/12/29 11:01:04;;;;;;;80.10;42.88;;;;;;;8.36;nan;94303.34;6097959;23;20044;-86
2021/12/29 11:03:32;;;;;;;74.10;40.25;;;;;;;8.44;nan;94308.78;6125979;23;20298;-86
2021/12/29 11:06:00;;;;;;;76.93;42.35;;;;;;;8.14;nan;94278.16;6098964;23;20438;-86
2021/12/29 11:08:28;;;;;;;88.30;45.42;;;;;;;8.00;nan;94279.91;6098664;23;20021;-86
2021/12/29 11:11:00;;;;;;;91.95;49.13;;;;;;;8.38;nan;94311.78;6098348;23;20012;-86
2021/12/29 11:13:28;;;;;;;87.35;47.08;;;;;;;8.20;nan;94294.75;6098575;23;20457;-86
2021/12/29 11:15:54;;;;;;;82.80;43.65;;;;;;;7.96;nan;94249.81;6098411;23;20481;-86
2021/12/29 11:18:20;;;;;;;78.00;40.15;;;;;;;8.44;nan;94340.50;6098435;23;20017;-86
2021/12/29 11:20:52;;;;;;;76.03;40.60;;;;;;;8.41;nan;94324.41;6098460;23;20006;-86
2021/12/29 11:23:21;;;;;;;80.53;41.60;;;;;;;8.08;nan;94252.09;6099252;23;20013;-87
2021/12/29 11:25:46;;;;;;;74.75;40.35;;;;;;;8.51;nan;94316.38;6099465;23;20006;-86
2021/12/29 11:28:26;;;;;;;76.57;39.58;;;;;;;7.61;nan;94181.56;6098503;23;20464;-86
2021/12/29 11:30:52;;;;;;;74.97;39.88;;;;;;;8.35;nan;94265.56;6124077;23;20028;-87
2021/12/29 11:33:19;;;;;;;72.03;39.92;;;;;;;6.31;nan;93948.66;6123724;23;20099;-86
2021/12/29 11:35:48;;;;;;;72.70;39.22;;;;;;;8.22;nan;94218.66;6098674;23;20264;-87
2021/12/29 11:38:15;;;;;;;72.13;38.97;;;;;;;8.07;nan;94197.72;6097795;23;20014;-87
2021/12/29 11:40:46;;;;;;;68.18;39.03;;;;;;;8.43;nan;94259.66;6099999;23;20080;-86
2021/12/29 11:43:22;;;;;;;67.63;38.85;;;;;;;7.71;nan;94153.19;6098479;23;20319;-86
2021/12/29 11:45:49;;;;;;;69.38;36.92;;;;;;;8.56;nan;94266.09;6104539;23;20014;-87